Terminal Aerodrome Forecast
Issued by NWS Huntsville, AL

Home | Current Version | Previous Version | Text Only | Print | Product List | Glossary On
Versions: 1 2 3 4 5 6 7 8 9 10 11 12 13 14
000
FTUS44 KHUN 220539
TAFMSL
TAF
KMSL 220539Z 2206/2306 11010KT P6SM BKN050 OVC100
      TEMPO 2206/2209 6SM -SHRA OVC050
     FM220900 13012KT 6SM -SHRA OVC025
     FM221500 12012G22KT 4SM SHRA BKN015 OVC025
     FM222000 13015G25KT 2SM SHRA BR BKN009 OVC015=

USA.gov is the U.S. government's official web portal to all federal, state and local government web resources and services.